LICT/TPS METAR and TAF weather

Enter ICAO airport designator
Station Type Date Time Source
LICT METAR 2022/01/27 22:55 UTC NOAA

LICT 272255Z 12005KT CAVOK 07/05 Q1029


Station Type Date Time Source
LICT Decoded METAR 2022/01/27 22:55 UTC NOAA

Trapani / Birgi, Italy (LICT) 37-55N 012-30E 14M
Jan 27, 2022 - 05:55 PM EST / 2022.01.27 2255 UTC
Wind: from the ESE (120 degrees) at 6 MPH (5 KT):0
Visibility: greater than 7 mile(s):0
Temperature: 44 F (7 C)
Dew Point: 41 F (5 C)
Relative Humidity: 87%
Pressure (altimeter): 30.39 in. Hg (1029 hPa)
ob: LICT 272255Z 12005KT CAVOK 07/05 Q1029
cycle: 23

Station Type Date Time Source
LICT TAF 2021/10/13 09:24 UTC NOAA

TAF TAF LICT 130800Z 1309/1321 26012KT 9999 SCT025 SCT040
TEMPO 1309/1313 SHRA FEW018CB BKN020
TEMPO 1313/1321 5000 TSRA BKN012 FEW018CB

Example: see airport list